sensor_id;sensor_type;location;lat;lon;timestamp;pressure;altitude;pressure_sealevel;temperature;humidity
68226;BME280;55045;49.410;11.030;2024-02-28T00:00:33;98028.31;;;5.12;100.00
68226;BME280;55045;49.410;11.030;2024-02-28T00:03:37;98032.03;;;5.00;100.00
68226;BME280;55045;49.410;11.030;2024-02-28T00:06:42;98030.34;;;5.01;100.00
68226;BME280;55045;49.410;11.030;2024-02-28T00:09:46;98032.41;;;4.86;100.00
68226;BME280;55045;49.410;11.030;2024-02-28T00:12:50;98037.91;;;5.05;100.00
68226;BME280;55045;49.410;11.030;2024-02-28T00:15:55;98041.25;;;5.38;100.00
68226;BME280;55045;49.410;11.030;2024-02-28T00:18:59;98034.03;;;5.22;100.00
68226;BME280;55045;49.410;11.030;2024-02-28T00:22:04;98042.66;;;5.19;100.00
68226;BME280;55045;49.410;11.030;2024-02-28T00:25:08;98035.44;;;5.02;100.00
68226;BME280;55045;49.410;11.030;2024-02-28T00:28:13;98037.75;;;5.11;100.00
68226;BME280;55045;49.410;11.030;2024-02-28T00:31:17;98033.50;;;5.09;100.00
68226;BME280;55045;49.410;11.030;2024-02-28T00:34:21;98037.22;;;4.99;100.00
68226;BME280;55045;49.410;11.030;2024-02-28T00:37:26;98028.66;;;4.98;100.00
68226;BME280;55045;49.410;11.030;2024-02-28T00:40:30;98030.75;;;5.16;100.00
68226;BME280;55045;49.410;11.030;2024-02-28T00:43:34;98024.22;;;5.05;100.00
68226;BME280;55045;49.410;11.030;2024-02-28T00:46:39;98030.34;;;5.01;100.00
68226;BME280;55045;49.410;11.030;2024-02-28T00:49:42;98032.03;;;5.02;100.00
68226;BME280;55045;49.410;11.030;2024-02-28T00:52:47;97983.50;;;4.89;100.00
68226;BME280;55045;49.410;11.030;2024-02-28T00:55:51;98028.59;;;5.31;100.00
68226;BME280;55045;49.410;11.030;2024-02-28T00:58:56;98035.53;;;5.29;100.00
68226;BME280;55045;49.410;11.030;2024-02-28T01:01:59;98034.19;;;5.15;100.00
68226;BME280;55045;49.410;11.030;2024-02-28T01:05:04;98028.22;;;5.15;100.00
68226;BME280;55045;49.410;11.030;2024-02-28T01:08:10;98031.41;;;5.23;100.00
68226;BME280;55045;49.410;11.030;2024-02-28T01:11:13;98037.47;;;5.20;100.00
68226;BME280;55045;49.410;11.030;2024-02-28T01:14:18;98034.28;;;5.12;100.00
68226;BME280;55045;49.410;11.030;2024-02-28T01:17:22;98031.69;;;5.14;100.00
68226;BME280;55045;49.410;11.030;2024-02-28T01:20:26;98037.41;;;5.24;100.00
68226;BME280;55045;49.410;11.030;2024-02-28T01:23:31;98033.59;;;5.06;100.00
68226;BME280;55045;49.410;11.030;2024-02-28T01:26:35;98036.13;;;5.07;100.00
68226;BME280;55045;49.410;11.030;2024-02-28T01:29:39;98036.63;;;5.20;100.00
68226;BME280;55045;49.410;11.030;2024-02-28T01:32:43;98035.13;;;5.13;100.00
68226;BME280;55045;49.410;11.030;2024-02-28T01:35:47;98034.34;;;5.09;100.00
68226;BME280;55045;49.410;11.030;2024-02-28T01:38:52;98026.44;;;5.17;100.00
68226;BME280;55045;49.410;11.030;2024-02-28T01:41:56;98029.22;;;5.09;100.00
68226;BME280;55045;49.410;11.030;2024-02-28T01:45:01;98033.19;;;5.21;100.00
68226;BME280;55045;49.410;11.030;2024-02-28T01:48:07;98033.44;;;5.12;100.00
68226;BME280;55045;49.410;11.030;2024-02-28T01:51:13;98037.25;;;5.28;100.00
68226;BME280;55045;49.410;11.030;2024-02-28T01:54:20;98032.91;;;5.30;100.00
68226;BME280;55045;49.410;11.030;2024-02-28T01:57:24;98039.47;;;5.11;100.00
68226;BME280;55045;49.410;11.030;2024-02-28T02:00:30;98037.66;;;5.14;100.00
68226;BME280;55045;49.410;11.030;2024-02-28T02:03:35;98045.66;;;5.04;100.00
68226;BME280;55045;49.410;11.030;2024-02-28T02:06:43;98036.56;;;4.92;100.00
68226;BME280;55045;49.410;11.030;2024-02-28T02:09:49;98053.38;;;5.04;100.00
68226;BME280;55045;49.410;11.030;2024-02-28T02:12:55;98069.09;;;4.93;100.00
68226;BME280;55045;49.410;11.030;2024-02-28T02:16:00;98065.19;;;5.11;100.00
68226;BME280;55045;49.410;11.030;2024-02-28T02:19:04;98067.56;;;5.17;100.00
68226;BME280;55045;49.410;11.030;2024-02-28T02:22:10;98065.16;;;5.12;100.00
68226;BME280;55045;49.410;11.030;2024-02-28T02:25:18;98078.69;;;5.17;100.00
68226;BME280;55045;49.410;11.030;2024-02-28T02:28:22;98083.78;;;5.19;100.00
68226;BME280;55045;49.410;11.030;2024-02-28T02:31:26;98096.28;;;5.00;100.00
68226;BME280;55045;49.410;11.030;2024-02-28T02:34:30;98098.03;;;5.32;100.00
68226;BME280;55045;49.410;11.030;2024-02-28T02:37:34;98104.69;;;5.07;100.00
68226;BME280;55045;49.410;11.030;2024-02-28T02:40:39;98106.50;;;5.03;100.00
68226;BME280;55045;49.410;11.030;2024-02-28T02:43:43;98114.03;;;5.11;100.00
68226;BME280;55045;49.410;11.030;2024-02-28T02:46:48;98103.34;;;4.94;100.00
68226;BME280;55045;49.410;11.030;2024-02-28T02:49:52;98120.50;;;4.93;100.00
68226;BME280;55045;49.410;11.030;2024-02-28T02:52:57;98127.41;;;4.89;100.00
68226;BME280;55045;49.410;11.030;2024-02-28T02:56:05;98125.53;;;4.96;100.00
68226;BME280;55045;49.410;11.030;2024-02-28T02:59:09;98125.59;;;4.95;100.00
68226;BME280;55045;49.410;11.030;2024-02-28T03:02:13;98135.13;;;4.89;100.00
68226;BME280;55045;49.410;11.030;2024-02-28T03:05:17;98143.72;;;4.88;100.00
68226;BME280;55045;49.410;11.030;2024-02-28T03:08:21;98142.00;;;4.89;100.00
68226;BME280;55045;49.410;11.030;2024-02-28T03:11:26;98144.22;;;5.03;100.00
68226;BME280;55045;49.410;11.030;2024-02-28T03:14:30;98144.00;;;5.10;100.00
68226;BME280;55045;49.410;11.030;2024-02-28T03:17:34;98150.16;;;5.05;100.00
68226;BME280;55045;49.410;11.030;2024-02-28T03:20:38;98156.53;;;4.90;100.00
68226;BME280;55045;49.410;11.030;2024-02-28T03:23:43;98167.69;;;4.89;100.00
68226;BME280;55045;49.410;11.030;2024-02-28T03:26:48;98168.75;;;4.82;100.00
68226;BME280;55045;49.410;11.030;2024-02-28T03:29:52;98171.53;;;5.07;100.00
68226;BME280;55045;49.410;11.030;2024-02-28T03:32:56;98170.97;;;4.96;100.00
68226;BME280;55045;49.410;11.030;2024-02-28T03:36:00;98167.59;;;4.94;100.00
68226;BME280;55045;49.410;11.030;2024-02-28T03:39:04;98179.66;;;4.91;100.00
68226;BME280;55045;49.410;11.030;2024-02-28T03:42:10;98172.66;;;4.97;100.00
68226;BME280;55045;49.410;11.030;2024-02-28T03:45:14;98186.81;;;5.13;100.00
68226;BME280;55045;49.410;11.030;2024-02-28T03:48:18;98180.28;;;5.00;100.00
68226;BME280;55045;49.410;11.030;2024-02-28T03:51:22;98184.00;;;4.88;100.00
68226;BME280;55045;49.410;11.030;2024-02-28T03:54:25;98187.56;;;4.82;100.00
68226;BME280;55045;49.410;11.030;2024-02-28T03:57:31;98195.13;;;4.88;100.00
68226;BME280;55045;49.410;11.030;2024-02-28T04:00:35;98205.47;;;4.85;100.00
68226;BME280;55045;49.410;11.030;2024-02-28T04:03:40;98202.81;;;4.88;100.00
68226;BME280;55045;49.410;11.030;2024-02-28T04:06:44;98207.25;;;4.83;100.00
68226;BME280;55045;49.410;11.030;2024-02-28T04:09:47;98203.72;;;4.87;100.00
68226;BME280;55045;49.410;11.030;2024-02-28T04:12:53;98214.00;;;4.87;100.00
68226;BME280;55045;49.410;11.030;2024-02-28T04:15:57;98217.34;;;4.91;100.00
68226;BME280;55045;49.410;11.030;2024-02-28T04:19:01;98217.25;;;4.94;100.00
68226;BME280;55045;49.410;11.030;2024-02-28T04:22:05;98215.75;;;4.85;100.00
68226;BME280;55045;49.410;11.030;2024-02-28T04:25:09;98212.38;;;4.83;100.00
68226;BME280;55045;49.410;11.030;2024-02-28T04:28:15;98212.38;;;4.83;100.00
68226;BME280;55045;49.410;11.030;2024-02-28T04:34:32;98214.38;;;4.72;100.00
68226;BME280;55045;49.410;11.030;2024-02-28T04:37:36;98221.19;;;4.73;100.00
68226;BME280;55045;49.410;11.030;2024-02-28T04:40:40;98218.91;;;4.97;100.00
68226;BME280;55045;49.410;11.030;2024-02-28T04:43:45;98218.66;;;5.07;100.00
68226;BME280;55045;49.410;11.030;2024-02-28T04:46:49;98210.69;;;4.82;100.00
68226;BME280;55045;49.410;11.030;2024-02-28T04:49:54;98219.22;;;4.84;100.00
68226;BME280;55045;49.410;11.030;2024-02-28T04:52:58;98210.91;;;4.73;100.00
68226;BME280;55045;49.410;11.030;2024-02-28T04:56:02;98210.53;;;4.88;100.00
68226;BME280;55045;49.410;11.030;2024-02-28T04:59:06;98220.09;;;4.83;100.00
68226;BME280;55045;49.410;11.030;2024-02-28T05:02:10;98225.38;;;4.77;100.00
68226;BME280;55045;49.410;11.030;2024-02-28T05:05:15;98221.19;;;4.73;100.00
68226;BME280;55045;49.410;11.030;2024-02-28T05:08:20;98233.16;;;4.74;100.00
68226;BME280;55045;49.410;11.030;2024-02-28T05:11:24;98230.38;;;4.83;100.00
68226;BME280;55045;49.410;11.030;2024-02-28T05:14:28;98234.84;;;4.75;100.00
68226;BME280;55045;49.410;11.030;2024-02-28T05:17:32;98228.72;;;4.79;100.00
68226;BME280;55045;49.410;11.030;2024-02-28T05:20:38;98229.63;;;4.78;100.00
68226;BME280;55045;49.410;11.030;2024-02-28T05:23:43;98231.53;;;4.70;100.00
68226;BME280;55045;49.410;11.030;2024-02-28T05:26:46;98234.53;;;4.87;100.00
68226;BME280;55045;49.410;11.030;2024-02-28T05:29:50;98207.66;;;4.65;100.00
68226;BME280;55045;49.410;11.030;2024-02-28T05:32:53;98232.34;;;4.72;100.00
68226;BME280;55045;49.410;11.030;2024-02-28T05:35:58;98239.00;;;4.79;100.00
68226;BME280;55045;49.410;11.030;2024-02-28T05:39:03;98239.00;;;4.79;100.00
68226;BME280;55045;49.410;11.030;2024-02-28T05:42:08;98236.81;;;4.64;100.00
68226;BME280;55045;49.410;11.030;2024-02-28T05:45:12;98240.91;;;4.73;100.00
68226;BME280;55045;49.410;11.030;2024-02-28T05:48:17;98234.97;;;4.69;100.00
68226;BME280;55045;49.410;11.030;2024-02-28T05:51:22;98236.34;;;5.19;100.00
68226;BME280;55045;49.410;11.030;2024-02-28T05:54:26;98249.91;;;4.90;100.00
68226;BME280;55045;49.410;11.030;2024-02-28T05:57:33;98249.28;;;4.81;100.00
68226;BME280;55045;49.410;11.030;2024-02-28T06:00:37;98251.00;;;4.80;100.00
68226;BME280;55045;49.410;11.030;2024-02-28T06:03:41;98257.16;;;4.73;100.00
68226;BME280;55045;49.410;11.030;2024-02-28T06:06:48;98256.34;;;4.70;100.00
68226;BME280;55045;49.410;11.030;2024-02-28T06:09:53;98259.81;;;4.70;100.00
68226;BME280;55045;49.410;11.030;2024-02-28T06:12:57;98255.59;;;4.66;100.00
68226;BME280;55045;49.410;11.030;2024-02-28T06:16:03;98274.34;;;4.70;100.00
68226;BME280;55045;49.410;11.030;2024-02-28T06:19:07;98271.69;;;4.74;100.00
68226;BME280;55045;49.410;11.030;2024-02-28T06:22:13;98277.75;;;4.72;100.00
68226;BME280;55045;49.410;11.030;2024-02-28T06:25:17;98274.88;;;4.85;100.00
68226;BME280;55045;49.410;11.030;2024-02-28T06:28:23;98293.72;;;4.84;100.00
68226;BME280;55045;49.410;11.030;2024-02-28T06:31:27;98300.97;;;4.67;100.00
68226;BME280;55045;49.410;11.030;2024-02-28T06:34:32;98301.72;;;4.72;100.00
68226;BME280;55045;49.410;11.030;2024-02-28T06:37:38;98300.78;;;4.75;100.00
68226;BME280;55045;49.410;11.030;2024-02-28T06:40:41;98307.47;;;4.83;100.00
68226;BME280;55045;49.410;11.030;2024-02-28T06:43:45;98298.34;;;4.70;100.00
68226;BME280;55045;49.410;11.030;2024-02-28T06:47:02;98308.47;;;4.76;100.00
68226;BME280;55045;49.410;11.030;2024-02-28T06:50:57;98315.22;;;4.82;100.00
68226;BME280;55045;49.410;11.030;2024-02-28T06:54:29;98326.44;;;4.76;100.00
68226;BME280;55045;49.410;11.030;2024-02-28T07:05:29;98332.06;;;4.94;100.00
68226;BME280;55045;49.410;11.030;2024-02-28T07:08:44;98349.47;;;5.19;100.00
68226;BME280;55045;49.410;11.030;2024-02-28T07:11:49;98347.31;;;5.03;100.00
68226;BME280;55045;49.410;11.030;2024-02-28T07:15:02;98358.78;;;4.86;100.00
68226;BME280;55045;49.410;11.030;2024-02-28T07:22:11;98374.13;;;4.89;100.00
68226;BME280;55045;49.410;11.030;2024-02-28T07:26:35;98365.22;;;5.06;100.00
68226;BME280;55045;49.410;11.030;2024-02-28T07:29:40;98370.72;;;4.89;100.00
68226;BME280;55045;49.410;11.030;2024-02-28T07:32:44;98367.34;;;4.87;100.00
68226;BME280;55045;49.410;11.030;2024-02-28T07:35:51;98367.22;;;4.93;100.00
68226;BME280;55045;49.410;11.030;2024-02-28T07:38:55;98379.63;;;5.13;100.00
68226;BME280;55045;49.410;11.030;2024-02-28T07:41:59;98379.09;;;4.97;100.00
68226;BME280;55045;49.410;11.030;2024-02-28T07:45:06;98394.59;;;4.94;100.00
68226;BME280;55045;49.410;11.030;2024-02-28T07:48:11;98397.06;;;4.99;100.00
68226;BME280;55045;49.410;11.030;2024-02-28T07:51:17;98394.63;;;5.31;100.00
68226;BME280;55045;49.410;11.030;2024-02-28T07:54:23;98402.00;;;5.08;100.00
68226;BME280;55045;49.410;11.030;2024-02-28T07:58:10;98405.34;;;5.13;100.00
68226;BME280;55045;49.410;11.030;2024-02-28T08:01:29;98402.81;;;5.11;100.00
68226;BME280;55045;49.410;11.030;2024-02-28T08:04:34;98393.19;;;5.19;100.00
68226;BME280;55045;49.410;11.030;2024-02-28T08:07:38;98395.09;;;5.10;100.00
68226;BME280;55045;49.410;11.030;2024-02-28T08:10:54;98398.91;;;5.32;100.00
68226;BME280;55045;49.410;11.030;2024-02-28T08:14:43;98399.41;;;5.09;100.00
68226;BME280;55045;49.410;11.030;2024-02-28T08:18:55;98410.97;;;5.29;100.00
68226;BME280;55045;49.410;11.030;2024-02-28T08:22:48;98419.16;;;5.07;100.00
68226;BME280;55045;49.410;11.030;2024-02-28T08:25:55;98421.16;;;5.35;100.00
68226;BME280;55045;49.410;11.030;2024-02-28T08:29:00;98430.78;;;5.25;100.00
68226;BME280;55045;49.410;11.030;2024-02-28T08:32:04;98430.13;;;5.15;100.00
68226;BME280;55045;49.410;11.030;2024-02-28T08:35:10;98430.78;;;5.25;100.00
68226;BME280;55045;49.410;11.030;2024-02-28T08:38:14;98435.28;;;5.15;100.00
68226;BME280;55045;49.410;11.030;2024-02-28T08:41:18;98436.69;;;5.29;100.00
68226;BME280;55045;49.410;11.030;2024-02-28T08:44:21;98437.97;;;5.48;100.00
68226;BME280;55045;49.410;11.030;2024-02-28T08:47:26;98438.09;;;5.43;100.00
68226;BME280;55045;49.410;11.030;2024-02-28T08:50:32;98444.53;;;5.24;100.00
68226;BME280;55045;49.410;11.030;2024-02-28T08:53:36;98447.72;;;5.35;100.00
68226;BME280;55045;49.410;11.030;2024-02-28T08:56:39;98450.44;;;5.28;100.00
68226;BME280;55045;49.410;11.030;2024-02-28T08:59:54;98454.34;;;5.45;100.00
68226;BME280;55045;49.410;11.030;2024-02-28T09:02:59;98455.28;;;5.41;100.00
68226;BME280;55045;49.410;11.030;2024-02-28T09:06:06;98464.91;;;5.33;100.00
68226;BME280;55045;49.410;11.030;2024-02-28T09:09:11;98458.28;;;5.23;100.00
68226;BME280;55045;49.410;11.030;2024-02-28T09:12:15;98458.06;;;5.32;100.00
68226;BME280;55045;49.410;11.030;2024-02-28T09:15:20;98457.50;;;5.57;100.00
68226;BME280;55045;49.410;11.030;2024-02-28T09:18:24;98450.25;;;5.37;100.00
68226;BME280;55045;49.410;11.030;2024-02-28T09:21:30;98452.81;;;5.37;100.00
68226;BME280;55045;49.410;11.030;2024-02-28T09:24:34;98455.16;;;5.47;100.00
68226;BME280;55045;49.410;11.030;2024-02-28T09:27:41;98455.31;;;5.40;100.00
68226;BME280;55045;49.410;11.030;2024-02-28T09:30:45;98459.44;;;5.47;100.00
68226;BME280;55045;49.410;11.030;2024-02-28T09:33:55;98456.31;;;5.34;100.00
68226;BME280;55045;49.410;11.030;2024-02-28T09:37:01;98461.50;;;5.31;100.00
68226;BME280;55045;49.410;11.030;2024-02-28T09:40:09;98464.06;;;5.31;100.00
68226;BME280;55045;49.410;11.030;2024-02-28T09:43:19;98466.25;;;5.49;100.00
68226;BME280;55045;49.410;11.030;2024-02-28T09:46:28;98452.56;;;5.47;100.00
68226;BME280;55045;49.410;11.030;2024-02-28T09:49:33;98459.53;;;5.44;100.00
68226;BME280;55045;49.410;11.030;2024-02-28T09:52:42;98461.91;;;5.53;100.00
68226;BME280;55045;49.410;11.030;2024-02-28T09:55:53;98459.13;;;5.61;100.00
68226;BME280;55045;49.410;11.030;2024-02-28T09:58:57;98469.81;;;5.81;100.00
68226;BME280;55045;49.410;11.030;2024-02-28T10:02:02;98460.22;;;5.88;100.00
68226;BME280;55045;49.410;11.030;2024-02-28T10:05:07;98456.13;;;5.79;100.00
68226;BME280;55045;49.410;11.030;2024-02-28T10:08:13;98462.28;;;5.72;100.00
68226;BME280;55045;49.410;11.030;2024-02-28T10:11:18;98468.91;;;5.82;100.00
68226;BME280;55045;49.410;11.030;2024-02-28T10:14:23;98471.31;;;5.91;100.00
68226;BME280;55045;49.410;11.030;2024-02-28T10:17:27;98478.31;;;5.85;100.00
68226;BME280;55045;49.410;11.030;2024-02-28T10:20:32;98467.38;;;5.75;100.00
68226;BME280;55045;49.410;11.030;2024-02-28T10:23:39;98475.84;;;5.80;100.00
68226;BME280;55045;49.410;11.030;2024-02-28T10:26:43;98466.72;;;5.67;100.00
68226;BME280;55045;49.410;11.030;2024-02-28T10:29:47;98484.72;;;5.67;100.00
68226;BME280;55045;49.410;11.030;2024-02-28T10:34:31;98492.41;;;6.07;100.00
68226;BME280;55045;49.410;11.030;2024-02-28T10:37:37;98479.50;;;5.70;100.00
68226;BME280;55045;49.410;11.030;2024-02-28T10:40:42;98490.97;;;5.95;100.00
68226;BME280;55045;49.410;11.030;2024-02-28T10:43:48;98463.06;;;5.77;100.00
68226;BME280;55045;49.410;11.030;2024-02-28T10:46:53;98491.06;;;5.91;100.00
68226;BME280;55045;49.410;11.030;2024-02-28T10:50:00;98492.66;;;5.96;100.00
68226;BME280;55045;49.410;11.030;2024-02-28T10:53:04;98483.28;;;5.92;100.00
68226;BME280;55045;49.410;11.030;2024-02-28T10:56:11;98497.41;;;6.13;100.00
68226;BME280;55045;49.410;11.030;2024-02-28T10:59:17;98502.34;;;6.21;100.00
68226;BME280;55045;49.410;11.030;2024-02-28T11:02:22;98496.53;;;6.14;100.00
68226;BME280;55045;49.410;11.030;2024-02-28T11:05:36;98501.19;;;6.32;100.00
68226;BME280;55045;49.410;11.030;2024-02-28T11:08:46;98509.97;;;6.59;100.00
68226;BME280;55045;49.410;11.030;2024-02-28T11:11:51;98511.84;;;6.54;100.00
68226;BME280;55045;49.410;11.030;2024-02-28T11:14:57;98508.22;;;6.27;100.00
68226;BME280;55045;49.410;11.030;2024-02-28T11:18:07;98508.31;;;6.23;100.00
68226;BME280;55045;49.410;11.030;2024-02-28T11:21:17;98517.66;;;6.27;100.00
68226;BME280;55045;49.410;11.030;2024-02-28T11:24:39;98498.78;;;6.26;100.00
68226;BME280;55045;49.410;11.030;2024-02-28T11:27:54;98516.66;;;6.32;100.00
68226;BME280;55045;49.410;11.030;2024-02-28T11:31:24;98518.28;;;6.37;100.00
68226;BME280;55045;49.410;11.030;2024-02-28T11:34:53;98511.84;;;6.19;100.00
68226;BME280;55045;49.410;11.030;2024-02-28T11:39:00;98506.84;;;6.14;100.00
68226;BME280;55045;49.410;11.030;2024-02-28T11:42:11;98499.03;;;6.17;100.00
68226;BME280;55045;49.410;11.030;2024-02-28T11:45:16;98505.22;;;6.44;100.00
68226;BME280;55045;49.410;11.030;2024-02-28T11:48:20;98513.44;;;6.58;100.00
68226;BME280;55045;49.410;11.030;2024-02-28T11:51:25;98515.66;;;6.72;100.00
68226;BME280;55045;49.410;11.030;2024-02-28T11:54:30;98524.34;;;6.68;100.00
68226;BME280;55045;49.410;11.030;2024-02-28T11:57:35;98525.31;;;6.64;100.00
68226;BME280;55045;49.410;11.030;2024-02-28T12:00:46;98528.72;;;6.66;100.00
68226;BME280;55045;49.410;11.030;2024-02-28T12:03:51;98526.31;;;6.58;100.00
68226;BME280;55045;49.410;11.030;2024-02-28T12:06:57;98518.69;;;6.55;100.00
68226;BME280;55045;49.410;11.030;2024-02-28T12:10:04;98499.50;;;6.66;100.00
68226;BME280;55045;49.410;11.030;2024-02-28T12:13:09;98516.25;;;6.82;100.00
68226;BME280;55045;49.410;11.030;2024-02-28T12:16:13;98528.44;;;6.77;100.00
68226;BME280;55045;49.410;11.030;2024-02-28T12:19:18;98524.41;;;6.67;100.00
68226;BME280;55045;49.410;11.030;2024-02-28T12:22:23;98513.66;;;6.82;100.00
68226;BME280;55045;49.410;11.030;2024-02-28T12:25:28;98508.91;;;6.99;100.00
68226;BME280;55045;49.410;11.030;2024-02-28T12:28:32;98508.59;;;6.79;100.00
68226;BME280;55045;49.410;11.030;2024-02-28T12:31:37;98510.34;;;6.78;100.00
68226;BME280;55045;49.410;11.030;2024-02-28T12:34:41;98512.34;;;6.67;100.00
68226;BME280;55045;49.410;11.030;2024-02-28T12:37:44;98515.53;;;6.77;100.00
68226;BME280;55045;49.410;11.030;2024-02-28T12:40:50;98510.25;;;6.81;100.00
68226;BME280;55045;49.410;11.030;2024-02-28T12:43:53;98511.44;;;6.70;100.00
68226;BME280;55045;49.410;11.030;2024-02-28T12:46:57;98512.03;;;6.79;100.00
68226;BME280;55045;49.410;11.030;2024-02-28T12:50:01;98512.06;;;6.78;100.00
68226;BME280;55045;49.410;11.030;2024-02-28T12:53:06;98512.41;;;6.64;100.00
68226;BME280;55045;49.410;11.030;2024-02-28T12:56:13;98508.47;;;6.83;100.00
68226;BME280;55045;49.410;11.030;2024-02-28T12:59:17;98502.22;;;6.92;100.00
68226;BME280;55045;49.410;11.030;2024-02-28T13:02:21;98515.72;;;6.69;100.00
68226;BME280;55045;49.410;11.030;2024-02-28T13:05:25;98508.81;;;7.02;100.00
68226;BME280;55045;49.410;11.030;2024-02-28T13:08:34;98507.31;;;6.95;100.00
68226;BME280;55045;49.410;11.030;2024-02-28T13:11:46;98508.22;;;6.92;100.00
68226;BME280;55045;49.410;11.030;2024-02-28T13:15:12;98505.19;;;6.78;100.00
68226;BME280;55045;49.410;11.030;2024-02-28T13:18:23;98490.75;;;6.71;100.00
68226;BME280;55045;49.410;11.030;2024-02-28T13:21:38;98484.94;;;6.96;100.00
68226;BME280;55045;49.410;11.030;2024-02-28T13:24:48;98504.72;;;6.95;100.00
68226;BME280;55045;49.410;11.030;2024-02-28T13:27:59;98505.03;;;7.14;100.00
68226;BME280;55045;49.410;11.030;2024-02-28T13:31:08;98508.19;;;6.94;100.00
68226;BME280;55045;49.410;11.030;2024-02-28T13:34:12;98498.16;;;6.83;100.00
68226;BME280;55045;49.410;11.030;2024-02-28T13:37:16;98502.81;;;7.02;100.00
68226;BME280;55045;49.410;11.030;2024-02-28T13:40:20;98495.13;;;7.00;100.00
68226;BME280;55045;49.410;11.030;2024-02-28T13:43:25;98500.63;;;7.19;100.00
68226;BME280;55045;49.410;11.030;2024-02-28T13:46:30;98502.97;;;7.27;100.00
68226;BME280;55045;49.410;11.030;2024-02-28T13:49:34;98481.94;;;7.11;100.00
68226;BME280;55045;49.410;11.030;2024-02-28T13:52:38;98497.81;;;7.27;100.00
68226;BME280;55045;49.410;11.030;2024-02-28T13:55:44;98499.31;;;7.34;100.00
68226;BME280;55045;49.410;11.030;2024-02-28T13:58:49;98499.72;;;7.20;100.00
68226;BME280;55045;49.410;11.030;2024-02-28T14:01:56;98489.09;;;7.31;100.00
68226;BME280;55045;49.410;11.030;2024-02-28T14:05:02;98483.66;;;7.40;100.00
68226;BME280;55045;49.410;11.030;2024-02-28T14:08:06;98472.56;;;7.38;100.00
68226;BME280;55045;49.410;11.030;2024-02-28T14:11:11;98475.31;;;7.32;100.00
68226;BME280;55045;49.410;11.030;2024-02-28T14:14:17;98472.03;;;7.25;100.00
68226;BME280;55045;49.410;11.030;2024-02-28T14:17:21;98469.34;;;7.30;100.00
68226;BME280;55045;49.410;11.030;2024-02-28T14:20:25;98467.38;;;7.38;100.00
68226;BME280;55045;49.410;11.030;2024-02-28T14:23:30;98467.47;;;7.35;100.00
68226;BME280;55045;49.410;11.030;2024-02-28T14:26:34;98477.81;;;7.63;100.00
68226;BME280;55045;49.410;11.030;2024-02-28T14:29:40;98482.34;;;7.56;100.00
68226;BME280;55045;49.410;11.030;2024-02-28T14:32:44;98481.31;;;7.32;100.00
68226;BME280;55045;49.410;11.030;2024-02-28T14:35:51;98478.59;;;7.37;100.00
68226;BME280;55045;49.410;11.030;2024-02-28T14:38:56;98482.41;;;7.53;100.00
68226;BME280;55045;49.410;11.030;2024-02-28T14:42:00;98475.03;;;7.41;100.00
68226;BME280;55045;49.410;11.030;2024-02-28T14:45:07;98477.84;;;7.33;100.00
68226;BME280;55045;49.410;11.030;2024-02-28T14:48:13;98481.78;;;7.45;100.00
68226;BME280;55045;49.410;11.030;2024-02-28T14:51:19;98479.41;;;7.39;100.00
68226;BME280;55045;49.410;11.030;2024-02-28T14:54:30;98475.03;;;7.41;100.00
68226;BME280;55045;49.410;11.030;2024-02-28T14:57:40;98474.34;;;7.34;100.00
68226;BME280;55045;49.410;11.030;2024-02-28T15:00:53;98475.19;;;7.35;100.00
68226;BME280;55045;49.410;11.030;2024-02-28T15:04:01;98472.03;;;7.27;100.00
68226;BME280;55045;49.410;11.030;2024-02-28T15:07:06;98486.47;;;7.32;100.00
68226;BME280;55045;49.410;11.030;2024-02-28T15:10:11;98487.47;;;7.28;100.00
68226;BME280;55045;49.410;11.030;2024-02-28T15:13:17;98477.50;;;7.14;100.00
68226;BME280;55045;49.410;11.030;2024-02-28T15:16:35;98484.47;;;7.12;100.00
68226;BME280;55045;49.410;11.030;2024-02-28T15:19:53;98484.94;;;7.25;100.00
68226;BME280;55045;49.410;11.030;2024-02-28T15:23:12;98479.56;;;7.33;100.00
68226;BME280;55045;49.410;11.030;2024-02-28T15:26:27;98483.53;;;7.44;100.00
68226;BME280;55045;49.410;11.030;2024-02-28T15:29:58;98486.94;;;7.45;100.00
68226;BME280;55045;49.410;11.030;2024-02-28T15:33:34;98483.53;;;7.44;100.00
68226;BME280;55045;49.410;11.030;2024-02-28T15:36:58;98481.78;;;7.45;100.00
68226;BME280;55045;49.410;11.030;2024-02-28T15:40:31;98473.44;;;7.37;100.00
68226;BME280;55045;49.410;11.030;2024-02-28T15:44:02;98454.50;;;7.08;100.00
68226;BME280;55045;49.410;11.030;2024-02-28T15:47:22;98472.19;;;7.20;100.00
68226;BME280;55045;49.410;11.030;2024-02-28T15:51:07;98475.03;;;7.11;100.00
68226;BME280;55045;49.410;11.030;2024-02-28T16:00:18;98470.34;;;7.26;100.00
68226;BME280;55045;49.410;11.030;2024-02-28T16:03:22;98479.94;;;7.20;100.00
68226;BME280;55045;49.410;11.030;2024-02-28T16:06:28;98473.78;;;7.25;100.00
68226;BME280;55045;49.410;11.030;2024-02-28T16:09:42;98478.16;;;7.22;100.00
68226;BME280;55045;49.410;11.030;2024-02-28T16:12:47;98474.63;;;7.25;100.00
68226;BME280;55045;49.410;11.030;2024-02-28T16:15:52;98474.41;;;7.03;100.00
68226;BME280;55045;49.410;11.030;2024-02-28T16:18:56;98466.28;;;7.17;100.00
68226;BME280;55045;49.410;11.030;2024-02-28T16:22:01;98470.66;;;7.13;100.00
68226;BME280;55045;49.410;11.030;2024-02-28T16:25:06;98479.31;;;6.81;100.00
68226;BME280;55045;49.410;11.030;2024-02-28T16:28:10;98478.06;;;6.63;100.00
68226;BME280;55045;49.410;11.030;2024-02-28T16:39:51;98495.69;;;6.14;100.00
68226;BME280;55045;49.410;11.030;2024-02-28T16:44:12;98487.34;;;6.02;100.00
68226;BME280;55045;49.410;11.030;2024-02-28T16:49:03;98492.25;;;5.76;100.00
68226;BME280;55045;49.410;11.030;2024-02-28T16:53:11;98492.78;;;5.89;100.00
68226;BME280;55045;49.410;11.030;2024-02-28T16:58:13;98503.66;;;5.64;100.00